sensor_id;sensor_type;location;lat;lon;timestamp;temperature;humidity
2653;DHT22;1336;48.692;9.144;2023-01-15T06:00:12;10.30;97.20
2653;DHT22;1336;48.692;9.144;2023-01-15T06:01:06;10.30;97.20
2653;DHT22;1336;48.692;9.144;2023-01-15T06:01:57;10.20;97.20
2653;DHT22;1336;48.692;9.144;2023-01-15T06:02:49;10.20;97.20
2653;DHT22;1336;48.692;9.144;2023-01-15T06:03:40;10.20;97.20
2653;DHT22;1336;48.692;9.144;2023-01-15T06:04:31;10.10;97.20
2653;DHT22;1336;48.692;9.144;2023-01-15T06:05:22;10.10;97.20
2653;DHT22;1336;48.692;9.144;2023-01-15T06:06:17;10.00;97.20
2653;DHT22;1336;48.692;9.144;2023-01-15T06:07:08;10.00;97.20
2653;DHT22;1336;48.692;9.144;2023-01-15T06:08:00;10.00;97.20
2653;DHT22;1336;48.692;9.144;2023-01-15T06:08:51;9.90;97.20
2653;DHT22;1336;48.692;9.144;2023-01-15T06:09:42;9.90;97.20
2653;DHT22;1336;48.692;9.144;2023-01-15T06:10:33;9.90;97.20
2653;DHT22;1336;48.692;9.144;2023-01-15T06:11:25;9.90;97.20
2653;DHT22;1336;48.692;9.144;2023-01-15T06:12:16;9.80;97.20
2653;DHT22;1336;48.692;9.144;2023-01-15T06:13:07;9.80;97.20
2653;DHT22;1336;48.692;9.144;2023-01-15T06:13:58;9.80;97.20
2653;DHT22;1336;48.692;9.144;2023-01-15T06:14:50;9.80;97.20
2653;DHT22;1336;48.692;9.144;2023-01-15T06:15:43;9.80;97.20
2653;DHT22;1336;48.692;9.144;2023-01-15T06:16:35;9.80;97.20
2653;DHT22;1336;48.692;9.144;2023-01-15T06:17:25;9.80;97.20
2653;DHT22;1336;48.692;9.144;2023-01-15T06:18:17;9.80;97.20
2653;DHT22;1336;48.692;9.144;2023-01-15T06:19:08;9.80;97.20
2653;DHT22;1336;48.692;9.144;2023-01-15T06:21:47;9.70;97.20
2653;DHT22;1336;48.692;9.144;2023-01-15T06:22:39;9.70;97.20
2653;DHT22;1336;48.692;9.144;2023-01-15T06:23:30;9.70;97.20
2653;DHT22;1336;48.692;9.144;2023-01-15T06:24:22;9.70;97.20
2653;DHT22;1336;48.692;9.144;2023-01-15T06:25:12;9.70;97.20
2653;DHT22;1336;48.692;9.144;2023-01-15T06:26:06;9.70;97.20
2653;DHT22;1336;48.692;9.144;2023-01-15T06:26:57;9.70;97.20
2653;DHT22;1336;48.692;9.144;2023-01-15T06:27:48;9.70;97.20
2653;DHT22;1336;48.692;9.144;2023-01-15T06:28:39;9.70;97.20
2653;DHT22;1336;48.692;9.144;2023-01-15T06:29:31;9.70;97.20
2653;DHT22;1336;48.692;9.144;2023-01-15T06:30:22;9.70;97.20
2653;DHT22;1336;48.692;9.144;2023-01-15T06:31:17;9.70;97.20
2653;DHT22;1336;48.692;9.144;2023-01-15T06:32:08;9.70;97.20
2653;DHT22;1336;48.692;9.144;2023-01-15T06:33:00;9.70;97.20
2653;DHT22;1336;48.692;9.144;2023-01-15T06:33:50;9.70;97.20
2653;DHT22;1336;48.692;9.144;2023-01-15T06:34:42;9.70;97.20
2653;DHT22;1336;48.692;9.144;2023-01-15T06:35:34;9.70;97.20
2653;DHT22;1336;48.692;9.144;2023-01-15T06:36:26;9.70;97.20
2653;DHT22;1336;48.692;9.144;2023-01-15T06:37:17;9.70;97.20
2653;DHT22;1336;48.692;9.144;2023-01-15T06:38:08;9.70;97.20
2653;DHT22;1336;48.692;9.144;2023-01-15T06:38:59;9.70;97.20
2653;DHT22;1336;48.692;9.144;2023-01-15T06:39:51;9.70;97.20
2653;DHT22;1336;48.692;9.144;2023-01-15T06:40:41;9.70;97.20
2653;DHT22;1336;48.692;9.144;2023-01-15T06:41:33;9.70;97.20
2653;DHT22;1336;48.692;9.144;2023-01-15T06:42:43;9.70;97.20
2653;DHT22;1336;48.692;9.144;2023-01-15T06:43:52;9.70;97.20
2653;DHT22;1336;48.692;9.144;2023-01-15T06:45:01;9.70;97.20
2653;DHT22;1336;48.692;9.144;2023-01-15T06:46:08;9.60;97.20
2653;DHT22;1336;48.692;9.144;2023-01-15T06:47:19;9.60;97.20
2653;DHT22;1336;48.692;9.144;2023-01-15T06:48:12;9.60;97.20
2653;DHT22;1336;48.692;9.144;2023-01-15T06:49:02;9.60;97.20
2653;DHT22;1336;48.692;9.144;2023-01-15T06:49:56;9.60;97.20
2653;DHT22;1336;48.692;9.144;2023-01-15T06:50:47;9.50;97.20
2653;DHT22;1336;48.692;9.144;2023-01-15T06:51:39;9.50;97.20
2653;DHT22;1336;48.692;9.144;2023-01-15T06:52:29;9.50;97.20
2653;DHT22;1336;48.692;9.144;2023-01-15T06:53:21;9.40;97.20
2653;DHT22;1336;48.692;9.144;2023-01-15T06:54:12;9.40;97.20
2653;DHT22;1336;48.692;9.144;2023-01-15T06:55:04;9.40;97.20
2653;DHT22;1336;48.692;9.144;2023-01-15T06:55:56;9.40;97.20
2653;DHT22;1336;48.692;9.144;2023-01-15T06:56:47;9.40;97.20
2653;DHT22;1336;48.692;9.144;2023-01-15T06:57:39;9.40;97.20
2653;DHT22;1336;48.692;9.144;2023-01-15T06:58:30;9.40;97.20
2653;DHT22;1336;48.692;9.144;2023-01-15T06:59:21;9.40;97.20
2653;DHT22;1336;48.692;9.144;2023-01-15T07:00:14;9.40;97.20
2653;DHT22;1336;48.692;9.144;2023-01-15T07:01:08;9.40;97.20
2653;DHT22;1336;48.692;9.144;2023-01-15T07:02:00;9.40;97.20
2653;DHT22;1336;48.692;9.144;2023-01-15T07:02:52;9.40;97.20
2653;DHT22;1336;48.692;9.144;2023-01-15T07:03:44;9.40;97.20
2653;DHT22;1336;48.692;9.144;2023-01-15T07:04:35;9.40;97.20
2653;DHT22;1336;48.692;9.144;2023-01-15T07:05:27;9.40;97.20
2653;DHT22;1336;48.692;9.144;2023-01-15T07:06:18;9.40;97.20
2653;DHT22;1336;48.692;9.144;2023-01-15T07:07:09;9.40;97.20
2653;DHT22;1336;48.692;9.144;2023-01-15T07:08:00;9.40;97.20
2653;DHT22;1336;48.692;9.144;2023-01-15T07:08:52;9.30;97.20
2653;DHT22;1336;48.692;9.144;2023-01-15T07:09:43;9.30;97.20
2653;DHT22;1336;48.692;9.144;2023-01-15T07:10:35;9.30;97.20
2653;DHT22;1336;48.692;9.144;2023-01-15T07:11:25;9.30;97.20
2653;DHT22;1336;48.692;9.144;2023-01-15T07:12:17;9.30;97.20
2653;DHT22;1336;48.692;9.144;2023-01-15T07:13:09;9.30;97.20
2653;DHT22;1336;48.692;9.144;2023-01-15T07:14:00;9.30;97.20
2653;DHT22;1336;48.692;9.144;2023-01-15T07:14:57;9.20;97.20
2653;DHT22;1336;48.692;9.144;2023-01-15T07:15:49;9.20;97.20
2653;DHT22;1336;48.692;9.144;2023-01-15T07:16:39;9.20;97.20
2653;DHT22;1336;48.692;9.144;2023-01-15T07:17:31;9.20;97.20
2653;DHT22;1336;48.692;9.144;2023-01-15T07:18:23;9.20;97.20
2653;DHT22;1336;48.692;9.144;2023-01-15T07:19:15;9.20;97.20
2653;DHT22;1336;48.692;9.144;2023-01-15T07:20:07;9.20;97.20
2653;DHT22;1336;48.692;9.144;2023-01-15T07:20:59;9.20;97.20
2653;DHT22;1336;48.692;9.144;2023-01-15T07:21:50;9.20;97.20
2653;DHT22;1336;48.692;9.144;2023-01-15T07:22:41;9.20;97.20
2653;DHT22;1336;48.692;9.144;2023-01-15T07:23:32;9.20;97.20
2653;DHT22;1336;48.692;9.144;2023-01-15T07:24:24;9.20;97.20
2653;DHT22;1336;48.692;9.144;2023-01-15T07:25:15;9.20;97.20
2653;DHT22;1336;48.692;9.144;2023-01-15T07:26:06;9.20;97.20
2653;DHT22;1336;48.692;9.144;2023-01-15T07:26:57;9.20;97.20
2653;DHT22;1336;48.692;9.144;2023-01-15T07:27:49;9.20;97.20
2653;DHT22;1336;48.692;9.144;2023-01-15T07:28:40;9.20;97.20
2653;DHT22;1336;48.692;9.144;2023-01-15T07:29:32;9.20;97.20
2653;DHT22;1336;48.692;9.144;2023-01-15T07:30:22;9.10;97.20
2653;DHT22;1336;48.692;9.144;2023-01-15T07:31:14;9.10;97.20
2653;DHT22;1336;48.692;9.144;2023-01-15T07:32:05;9.10;97.20
2653;DHT22;1336;48.692;9.144;2023-01-15T07:32:57;9.10;97.20
2653;DHT22;1336;48.692;9.144;2023-01-15T07:33:49;9.10;97.20
2653;DHT22;1336;48.692;9.144;2023-01-15T07:34:40;9.10;97.20
2653;DHT22;1336;48.692;9.144;2023-01-15T07:35:31;9.10;97.20
2653;DHT22;1336;48.692;9.144;2023-01-15T07:36:25;9.00;97.20
2653;DHT22;1336;48.692;9.144;2023-01-15T07:37:16;9.00;97.20
2653;DHT22;1336;48.692;9.144;2023-01-15T07:38:08;9.00;97.20
2653;DHT22;1336;48.692;9.144;2023-01-15T07:38:58;9.00;97.20
2653;DHT22;1336;48.692;9.144;2023-01-15T07:39:50;9.00;97.20
2653;DHT22;1336;48.692;9.144;2023-01-15T07:40:41;9.00;97.20
2653;DHT22;1336;48.692;9.144;2023-01-15T07:41:32;9.00;97.20
2653;DHT22;1336;48.692;9.144;2023-01-15T07:42:42;9.00;97.20
2653;DHT22;1336;48.692;9.144;2023-01-15T07:43:51;8.90;97.20
2653;DHT22;1336;48.692;9.144;2023-01-15T07:45:00;8.90;97.20
2653;DHT22;1336;48.692;9.144;2023-01-15T07:46:09;8.90;97.20
2653;DHT22;1336;48.692;9.144;2023-01-15T07:47:20;8.90;97.20
2653;DHT22;1336;48.692;9.144;2023-01-15T07:48:29;8.80;97.20
2653;DHT22;1336;48.692;9.144;2023-01-15T07:49:41;8.80;97.20
2653;DHT22;1336;48.692;9.144;2023-01-15T07:50:36;8.80;97.20
2653;DHT22;1336;48.692;9.144;2023-01-15T07:51:26;8.80;97.20
2653;DHT22;1336;48.692;9.144;2023-01-15T07:52:20;8.80;97.20
2653;DHT22;1336;48.692;9.144;2023-01-15T07:53:11;8.80;97.20
2653;DHT22;1336;48.692;9.144;2023-01-15T07:54:03;8.80;97.20
2653;DHT22;1336;48.692;9.144;2023-01-15T07:54:53;8.80;97.20
2653;DHT22;1336;48.692;9.144;2023-01-15T07:55:45;8.80;97.20
2653;DHT22;1336;48.692;9.144;2023-01-15T07:56:36;8.80;97.20
2653;DHT22;1336;48.692;9.144;2023-01-15T07:57:28;8.80;97.20
2653;DHT22;1336;48.692;9.144;2023-01-15T07:58:19;8.80;97.20
2653;DHT22;1336;48.692;9.144;2023-01-15T07:59:10;8.80;97.20
2653;DHT22;1336;48.692;9.144;2023-01-15T08:00:01;8.80;97.20
2653;DHT22;1336;48.692;9.144;2023-01-15T08:00:53;8.80;97.20
2653;DHT22;1336;48.692;9.144;2023-01-15T08:01:44;8.80;97.20
2653;DHT22;1336;48.692;9.144;2023-01-15T08:02:36;8.80;97.20
2653;DHT22;1336;48.692;9.144;2023-01-15T08:03:27;8.80;97.20
2653;DHT22;1336;48.692;9.144;2023-01-15T08:04:18;8.80;97.20
2653;DHT22;1336;48.692;9.144;2023-01-15T08:05:10;8.80;97.20
2653;DHT22;1336;48.692;9.144;2023-01-15T08:06:02;8.80;97.20
2653;DHT22;1336;48.692;9.144;2023-01-15T08:06:53;8.80;97.20
2653;DHT22;1336;48.692;9.144;2023-01-15T08:07:45;8.80;97.20
2653;DHT22;1336;48.692;9.144;2023-01-15T08:08:36;8.80;97.20
2653;DHT22;1336;48.692;9.144;2023-01-15T08:09:28;8.80;97.20
2653;DHT22;1336;48.692;9.144;2023-01-15T08:10:19;8.80;97.20
2653;DHT22;1336;48.692;9.144;2023-01-15T08:11:11;8.80;97.20
2653;DHT22;1336;48.692;9.144;2023-01-15T08:12:16;8.80;97.20
2653;DHT22;1336;48.692;9.144;2023-01-15T08:13:26;8.80;97.20
2653;DHT22;1336;48.692;9.144;2023-01-15T08:14:35;8.80;97.20
2653;DHT22;1336;48.692;9.144;2023-01-15T08:15:44;8.70;97.20
2653;DHT22;1336;48.692;9.144;2023-01-15T08:16:36;8.70;97.20
2653;DHT22;1336;48.692;9.144;2023-01-15T08:17:26;8.70;97.20
2653;DHT22;1336;48.692;9.144;2023-01-15T08:18:17;8.70;97.20
2653;DHT22;1336;48.692;9.144;2023-01-15T08:19:09;8.70;97.20
2653;DHT22;1336;48.692;9.144;2023-01-15T08:20:00;8.70;97.20
2653;DHT22;1336;48.692;9.144;2023-01-15T08:20:54;8.70;97.20
2653;DHT22;1336;48.692;9.144;2023-01-15T08:21:44;8.70;97.20
2653;DHT22;1336;48.692;9.144;2023-01-15T08:22:37;8.70;97.20
2653;DHT22;1336;48.692;9.144;2023-01-15T08:23:28;8.60;97.20
2653;DHT22;1336;48.692;9.144;2023-01-15T08:24:19;8.60;97.20
2653;DHT22;1336;48.692;9.144;2023-01-15T08:25:12;8.60;97.20
2653;DHT22;1336;48.692;9.144;2023-01-15T08:26:04;8.60;97.20
2653;DHT22;1336;48.692;9.144;2023-01-15T08:26:55;8.60;97.20
2653;DHT22;1336;48.692;9.144;2023-01-15T08:27:47;8.60;97.20
2653;DHT22;1336;48.692;9.144;2023-01-15T08:28:38;8.60;97.20
2653;DHT22;1336;48.692;9.144;2023-01-15T08:29:30;8.70;97.20
2653;DHT22;1336;48.692;9.144;2023-01-15T08:30:22;8.60;97.20
2653;DHT22;1336;48.692;9.144;2023-01-15T08:31:14;8.60;97.20
2653;DHT22;1336;48.692;9.144;2023-01-15T08:32:05;8.60;97.20
2653;DHT22;1336;48.692;9.144;2023-01-15T08:33:00;8.60;97.20
2653;DHT22;1336;48.692;9.144;2023-01-15T08:33:52;8.60;97.20
2653;DHT22;1336;48.692;9.144;2023-01-15T08:34:44;8.60;97.20
2653;DHT22;1336;48.692;9.144;2023-01-15T08:35:34;8.60;97.20
2653;DHT22;1336;48.692;9.144;2023-01-15T08:36:28;8.60;97.20
2653;DHT22;1336;48.692;9.144;2023-01-15T08:37:18;8.60;97.20
2653;DHT22;1336;48.692;9.144;2023-01-15T08:38:10;8.60;97.20
2653;DHT22;1336;48.692;9.144;2023-01-15T08:39:01;8.50;97.20
2653;DHT22;1336;48.692;9.144;2023-01-15T08:39:53;8.50;97.20
2653;DHT22;1336;48.692;9.144;2023-01-15T08:40:45;8.50;97.20
2653;DHT22;1336;48.692;9.144;2023-01-15T08:41:48;8.50;97.20
2653;DHT22;1336;48.692;9.144;2023-01-15T08:42:39;8.50;97.20
2653;DHT22;1336;48.692;9.144;2023-01-15T08:43:31;8.50;97.20
2653;DHT22;1336;48.692;9.144;2023-01-15T08:44:23;8.50;97.20
2653;DHT22;1336;48.692;9.144;2023-01-15T08:45:15;8.50;97.20
2653;DHT22;1336;48.692;9.144;2023-01-15T08:46:06;8.50;97.20
2653;DHT22;1336;48.692;9.144;2023-01-15T08:46:58;8.50;97.20
2653;DHT22;1336;48.692;9.144;2023-01-15T08:47:48;8.50;97.20
2653;DHT22;1336;48.692;9.144;2023-01-15T08:48:40;8.50;97.20
2653;DHT22;1336;48.692;9.144;2023-01-15T08:49:31;8.50;97.20
2653;DHT22;1336;48.692;9.144;2023-01-15T08:50:23;8.50;97.20
2653;DHT22;1336;48.692;9.144;2023-01-15T08:51:14;8.50;97.20
2653;DHT22;1336;48.692;9.144;2023-01-15T08:52:07;8.50;97.20
2653;DHT22;1336;48.692;9.144;2023-01-15T08:52:58;8.50;97.20
2653;DHT22;1336;48.692;9.144;2023-01-15T08:53:51;8.50;97.20
2653;DHT22;1336;48.692;9.144;2023-01-15T08:54:41;8.50;97.20
2653;DHT22;1336;48.692;9.144;2023-01-15T08:55:33;8.50;97.20
2653;DHT22;1336;48.692;9.144;2023-01-15T08:56:24;8.50;97.20
2653;DHT22;1336;48.692;9.144;2023-01-15T08:57:16;8.50;97.20
2653;DHT22;1336;48.692;9.144;2023-01-15T08:58:07;8.50;97.20
2653;DHT22;1336;48.692;9.144;2023-01-15T08:59:03;8.50;97.20
2653;DHT22;1336;48.692;9.144;2023-01-15T08:59:54;8.50;97.20
2653;DHT22;1336;48.692;9.144;2023-01-15T09:00:46;8.50;97.20
2653;DHT22;1336;48.692;9.144;2023-01-15T09:01:38;8.50;97.20
2653;DHT22;1336;48.692;9.144;2023-01-15T09:02:30;8.50;97.20
2653;DHT22;1336;48.692;9.144;2023-01-15T09:03:21;8.50;97.20
2653;DHT22;1336;48.692;9.144;2023-01-15T09:04:13;8.60;97.20
2653;DHT22;1336;48.692;9.144;2023-01-15T09:05:05;8.60;97.20
2653;DHT22;1336;48.692;9.144;2023-01-15T09:05:57;8.60;97.20
2653;DHT22;1336;48.692;9.144;2023-01-15T09:06:49;8.60;97.20
2653;DHT22;1336;48.692;9.144;2023-01-15T09:07:42;8.60;97.20
2653;DHT22;1336;48.692;9.144;2023-01-15T09:08:33;8.60;97.20
2653;DHT22;1336;48.692;9.144;2023-01-15T09:09:25;8.60;97.20
2653;DHT22;1336;48.692;9.144;2023-01-15T09:10:15;8.60;97.20
2653;DHT22;1336;48.692;9.144;2023-01-15T09:11:08;8.70;97.20
2653;DHT22;1336;48.692;9.144;2023-01-15T09:11:59;8.70;97.20
2653;DHT22;1336;48.692;9.144;2023-01-15T09:12:51;8.70;97.20
2653;DHT22;1336;48.692;9.144;2023-01-15T09:13:41;8.70;97.20
2653;DHT22;1336;48.692;9.144;2023-01-15T09:14:33;8.70;97.20
2653;DHT22;1336;48.692;9.144;2023-01-15T09:15:24;8.70;97.20
2653;DHT22;1336;48.692;9.144;2023-01-15T09:16:16;8.70;97.20
2653;DHT22;1336;48.692;9.144;2023-01-15T09:17:07;8.70;97.20
2653;DHT22;1336;48.692;9.144;2023-01-15T09:17:59;8.70;97.20
2653;DHT22;1336;48.692;9.144;2023-01-15T09:18:50;8.70;97.20
2653;DHT22;1336;48.692;9.144;2023-01-15T09:19:41;8.70;97.20
2653;DHT22;1336;48.692;9.144;2023-01-15T09:20:32;8.80;97.20
2653;DHT22;1336;48.692;9.144;2023-01-15T09:21:24;8.70;97.20
2653;DHT22;1336;48.692;9.144;2023-01-15T09:22:14;8.70;97.20
2653;DHT22;1336;48.692;9.144;2023-01-15T09:23:08;8.80;97.20
2653;DHT22;1336;48.692;9.144;2023-01-15T09:23:59;8.70;97.20
2653;DHT22;1336;48.692;9.144;2023-01-15T09:24:50;8.80;97.20
2653;DHT22;1336;48.692;9.144;2023-01-15T09:25:50;8.80;97.20
2653;DHT22;1336;48.692;9.144;2023-01-15T09:26:42;8.80;97.20
2653;DHT22;1336;48.692;9.144;2023-01-15T09:27:33;8.80;97.20
2653;DHT22;1336;48.692;9.144;2023-01-15T09:28:24;8.80;97.20
2653;DHT22;1336;48.692;9.144;2023-01-15T09:29:15;8.80;97.20
2653;DHT22;1336;48.692;9.144;2023-01-15T09:30:09;8.80;97.20
2653;DHT22;1336;48.692;9.144;2023-01-15T09:31:00;8.80;97.20
2653;DHT22;1336;48.692;9.144;2023-01-15T09:31:52;8.80;97.20
2653;DHT22;1336;48.692;9.144;2023-01-15T09:32:43;8.80;97.20
2653;DHT22;1336;48.692;9.144;2023-01-15T09:33:35;8.80;97.20
2653;DHT22;1336;48.692;9.144;2023-01-15T09:34:25;8.80;97.20
2653;DHT22;1336;48.692;9.144;2023-01-15T09:35:17;8.80;97.20
2653;DHT22;1336;48.692;9.144;2023-01-15T09:36:14;8.80;97.20
2653;DHT22;1336;48.692;9.144;2023-01-15T09:37:06;8.80;97.20
2653;DHT22;1336;48.692;9.144;2023-01-15T09:37:57;8.80;97.20
2653;DHT22;1336;48.692;9.144;2023-01-15T09:38:50;8.80;97.20
2653;DHT22;1336;48.692;9.144;2023-01-15T09:39:41;8.80;97.20
2653;DHT22;1336;48.692;9.144;2023-01-15T09:40:43;8.80;97.20
2653;DHT22;1336;48.692;9.144;2023-01-15T09:41:49;8.80;97.20
2653;DHT22;1336;48.692;9.144;2023-01-15T09:43:03;8.80;97.20
2653;DHT22;1336;48.692;9.144;2023-01-15T09:44:02;8.80;97.20
2653;DHT22;1336;48.692;9.144;2023-01-15T09:45:09;8.80;97.20
2653;DHT22;1336;48.692;9.144;2023-01-15T09:46:08;8.80;97.20
2653;DHT22;1336;48.692;9.144;2023-01-15T09:47:07;8.80;97.20
2653;DHT22;1336;48.692;9.144;2023-01-15T09:48:07;8.70;97.20
2653;DHT22;1336;48.692;9.144;2023-01-15T09:49:10;8.70;97.20
2653;DHT22;1336;48.692;9.144;2023-01-15T09:50:17;8.70;97.20
2653;DHT22;1336;48.692;9.144;2023-01-15T09:51:17;8.70;97.20
2653;DHT22;1336;48.692;9.144;2023-01-15T09:52:17;8.70;97.20
2653;DHT22;1336;48.692;9.144;2023-01-15T09:53:23;8.60;97.20
2653;DHT22;1336;48.692;9.144;2023-01-15T09:54:28;8.60;97.20
2653;DHT22;1336;48.692;9.144;2023-01-15T09:55:29;8.50;97.20
2653;DHT22;1336;48.692;9.144;2023-01-15T09:56:22;8.50;97.20
2653;DHT22;1336;48.692;9.144;2023-01-15T09:57:15;8.40;97.20
2653;DHT22;1336;48.692;9.144;2023-01-15T09:58:10;8.40;97.20
2653;DHT22;1336;48.692;9.144;2023-01-15T09:59:13;8.30;97.20
2653;DHT22;1336;48.692;9.144;2023-01-15T10:00:14;8.30;97.20
2653;DHT22;1336;48.692;9.144;2023-01-15T10:01:14;8.30;97.20
2653;DHT22;1336;48.692;9.144;2023-01-15T10:02:14;8.30;97.20
2653;DHT22;1336;48.692;9.144;2023-01-15T10:03:27;8.30;97.20
2653;DHT22;1336;48.692;9.144;2023-01-15T10:04:29;8.30;97.20
2653;DHT22;1336;48.692;9.144;2023-01-15T10:05:27;8.30;97.20
2653;DHT22;1336;48.692;9.144;2023-01-15T10:06:23;8.30;97.20
2653;DHT22;1336;48.692;9.144;2023-01-15T10:07:18;8.30;97.20
2653;DHT22;1336;48.692;9.144;2023-01-15T10:08:16;8.30;97.20
2653;DHT22;1336;48.692;9.144;2023-01-15T10:09:13;8.30;97.20
2653;DHT22;1336;48.692;9.144;2023-01-15T10:10:10;8.40;97.20
2653;DHT22;1336;48.692;9.144;2023-01-15T10:11:05;8.40;97.20
2653;DHT22;1336;48.692;9.144;2023-01-15T10:12:14;8.40;97.20
2653;DHT22;1336;48.692;9.144;2023-01-15T10:13:29;8.40;97.20
2653;DHT22;1336;48.692;9.144;2023-01-15T10:14:35;8.40;97.20
2653;DHT22;1336;48.692;9.144;2023-01-15T10:15:34;8.40;97.20
2653;DHT22;1336;48.692;9.144;2023-01-15T10:16:30;8.40;97.20
2653;DHT22;1336;48.692;9.144;2023-01-15T10:17:25;8.50;97.20
2653;DHT22;1336;48.692;9.144;2023-01-15T10:18:19;8.50;97.20
2653;DHT22;1336;48.692;9.144;2023-01-15T10:19:10;8.60;97.20
2653;DHT22;1336;48.692;9.144;2023-01-15T10:20:02;8.60;97.20
2653;DHT22;1336;48.692;9.144;2023-01-15T10:21:09;8.60;97.20
2653;DHT22;1336;48.692;9.144;2023-01-15T10:22:04;8.60;97.20
2653;DHT22;1336;48.692;9.144;2023-01-15T10:23:08;8.60;97.20
2653;DHT22;1336;48.692;9.144;2023-01-15T10:24:06;8.60;97.20
2653;DHT22;1336;48.692;9.144;2023-01-15T10:25:01;8.60;97.20
2653;DHT22;1336;48.692;9.144;2023-01-15T10:26:04;8.70;97.20
2653;DHT22;1336;48.692;9.144;2023-01-15T10:26:58;8.70;97.20
2653;DHT22;1336;48.692;9.144;2023-01-15T10:27:50;8.80;97.20
2653;DHT22;1336;48.692;9.144;2023-01-15T10:28:57;8.80;97.20
2653;DHT22;1336;48.692;9.144;2023-01-15T10:29:51;8.80;97.20
2653;DHT22;1336;48.692;9.144;2023-01-15T10:30:48;8.80;97.20
2653;DHT22;1336;48.692;9.144;2023-01-15T10:31:50;8.90;97.20
2653;DHT22;1336;48.692;9.144;2023-01-15T10:32:44;8.80;97.20
2653;DHT22;1336;48.692;9.144;2023-01-15T10:33:57;8.80;97.20
2653;DHT22;1336;48.692;9.144;2023-01-15T10:36:14;8.80;97.20
2653;DHT22;1336;48.692;9.144;2023-01-15T10:37:11;8.90;97.20
2653;DHT22;1336;48.692;9.144;2023-01-15T10:38:11;8.90;97.20
2653;DHT22;1336;48.692;9.144;2023-01-15T10:39:11;8.90;97.20
2653;DHT22;1336;48.692;9.144;2023-01-15T10:40:17;8.80;97.20
2653;DHT22;1336;48.692;9.144;2023-01-15T10:41:34;8.80;97.20
2653;DHT22;1336;48.692;9.144;2023-01-15T10:42:36;8.80;97.20
2653;DHT22;1336;48.692;9.144;2023-01-15T10:43:43;8.70;97.20
2653;DHT22;1336;48.692;9.144;2023-01-15T10:44:45;8.60;97.20
2653;DHT22;1336;48.692;9.144;2023-01-15T10:45:40;8.60;97.20
2653;DHT22;1336;48.692;9.144;2023-01-15T10:46:36;8.60;97.20
2653;DHT22;1336;48.692;9.144;2023-01-15T10:47:33;8.60;97.20
2653;DHT22;1336;48.692;9.144;2023-01-15T10:48:29;8.60;97.20
2653;DHT22;1336;48.692;9.144;2023-01-15T10:49:21;8.50;97.20
2653;DHT22;1336;48.692;9.144;2023-01-15T10:50:17;8.50;97.20
2653;DHT22;1336;48.692;9.144;2023-01-15T10:51:13;8.50;97.20
2653;DHT22;1336;48.692;9.144;2023-01-15T10:52:15;8.40;97.20
2653;DHT22;1336;48.692;9.144;2023-01-15T10:53:15;8.40;97.20
2653;DHT22;1336;48.692;9.144;2023-01-15T10:54:16;8.30;97.20
2653;DHT22;1336;48.692;9.144;2023-01-15T10:55:17;8.30;97.20
2653;DHT22;1336;48.692;9.144;2023-01-15T10:56:14;8.20;97.20
2653;DHT22;1336;48.692;9.144;2023-01-15T10:57:13;8.20;97.20
2653;DHT22;1336;48.692;9.144;2023-01-15T10:58:12;8.20;97.20
2653;DHT22;1336;48.692;9.144;2023-01-15T10:59:12;8.20;97.20
2653;DHT22;1336;48.692;9.144;2023-01-15T11:00:09;8.10;97.20
2653;DHT22;1336;48.692;9.144;2023-01-15T11:01:04;8.10;97.20
2653;DHT22;1336;48.692;9.144;2023-01-15T11:01:57;8.10;97.20
2653;DHT22;1336;48.692;9.144;2023-01-15T11:03:00;8.10;97.20
2653;DHT22;1336;48.692;9.144;2023-01-15T11:03:52;8.00;97.20
2653;DHT22;1336;48.692;9.144;2023-01-15T11:04:44;8.00;97.20
2653;DHT22;1336;48.692;9.144;2023-01-15T11:05:35;8.00;97.20
2653;DHT22;1336;48.692;9.144;2023-01-15T11:06:29;7.90;97.20
2653;DHT22;1336;48.692;9.144;2023-01-15T11:07:21;7.90;97.20
2653;DHT22;1336;48.692;9.144;2023-01-15T11:08:21;7.90;97.20
2653;DHT22;1336;48.692;9.144;2023-01-15T11:09:19;7.90;97.20
2653;DHT22;1336;48.692;9.144;2023-01-15T11:10:15;7.90;97.20
2653;DHT22;1336;48.692;9.144;2023-01-15T11:11:15;7.90;97.20
2653;DHT22;1336;48.692;9.144;2023-01-15T11:12:19;7.90;97.20
2653;DHT22;1336;48.692;9.144;2023-01-15T11:13:29;7.90;97.20
2653;DHT22;1336;48.692;9.144;2023-01-15T11:14:39;7.90;97.20
2653;DHT22;1336;48.692;9.144;2023-01-15T11:15:49;7.90;97.20
2653;DHT22;1336;48.692;9.144;2023-01-15T11:16:58;8.00;97.20
2653;DHT22;1336;48.692;9.144;2023-01-15T11:18:12;8.00;97.20
2653;DHT22;1336;48.692;9.144;2023-01-15T11:19:28;8.00;97.20
2653;DHT22;1336;48.692;9.144;2023-01-15T11:20:31;8.00;97.20
2653;DHT22;1336;48.692;9.144;2023-01-15T11:21:24;8.00;97.20
2653;DHT22;1336;48.692;9.144;2023-01-15T11:22:18;7.90;97.20
2653;DHT22;1336;48.692;9.144;2023-01-15T11:23:11;7.90;97.20
2653;DHT22;1336;48.692;9.144;2023-01-15T11:24:03;7.90;97.20
2653;DHT22;1336;48.692;9.144;2023-01-15T11:24:56;7.80;97.20
2653;DHT22;1336;48.692;9.144;2023-01-15T11:25:51;7.80;97.20
2653;DHT22;1336;48.692;9.144;2023-01-15T11:26:46;7.70;97.20
2653;DHT22;1336;48.692;9.144;2023-01-15T11:27:39;7.70;97.20
2653;DHT22;1336;48.692;9.144;2023-01-15T11:28:33;7.70;97.20
2653;DHT22;1336;48.692;9.144;2023-01-15T11:29:31;7.70;97.20
2653;DHT22;1336;48.692;9.144;2023-01-15T11:30:25;7.70;97.20
2653;DHT22;1336;48.692;9.144;2023-01-15T11:31:17;7.70;97.20
2653;DHT22;1336;48.692;9.144;2023-01-15T11:32:18;7.70;97.20
2653;DHT22;1336;48.692;9.144;2023-01-15T11:33:21;7.70;97.20
2653;DHT22;1336;48.692;9.144;2023-01-15T11:34:18;7.70;97.20
2653;DHT22;1336;48.692;9.144;2023-01-15T11:35:14;7.70;97.20
2653;DHT22;1336;48.692;9.144;2023-01-15T11:36:18;7.70;97.20
2653;DHT22;1336;48.692;9.144;2023-01-15T11:37:11;7.60;97.20
2653;DHT22;1336;48.692;9.144;2023-01-15T11:38:04;7.50;97.20
2653;DHT22;1336;48.692;9.144;2023-01-15T11:38:56;7.50;97.20
2653;DHT22;1336;48.692;9.144;2023-01-15T11:39:54;7.40;97.20
2653;DHT22;1336;48.692;9.144;2023-01-15T11:40:51;7.40;97.20
2653;DHT22;1336;48.692;9.144;2023-01-15T11:41:41;7.30;97.20
2653;DHT22;1336;48.692;9.144;2023-01-15T11:42:52;7.30;97.20
2653;DHT22;1336;48.692;9.144;2023-01-15T11:44:01;7.30;97.20
2653;DHT22;1336;48.692;9.144;2023-01-15T11:45:14;7.30;97.20
2653;DHT22;1336;48.692;9.144;2023-01-15T11:46:26;7.30;97.20
2653;DHT22;1336;48.692;9.144;2023-01-15T11:47:35;7.20;97.20
2653;DHT22;1336;48.692;9.144;2023-01-15T11:48:46;7.10;97.20
2653;DHT22;1336;48.692;9.144;2023-01-15T11:49:55;7.10;97.20
2653;DHT22;1336;48.692;9.144;2023-01-15T11:51:06;7.10;97.20
2653;DHT22;1336;48.692;9.144;2023-01-15T11:52:00;7.00;97.20
2653;DHT22;1336;48.692;9.144;2023-01-15T11:52:53;7.00;97.20
2653;DHT22;1336;48.692;9.144;2023-01-15T11:53:49;7.00;97.20
2653;DHT22;1336;48.692;9.144;2023-01-15T11:54:42;7.00;97.20
2653;DHT22;1336;48.692;9.144;2023-01-15T11:55:35;6.90;97.20
2653;DHT22;1336;48.692;9.144;2023-01-15T11:56:28;6.90;97.20
2653;DHT22;1336;48.692;9.144;2023-01-15T11:57:26;6.90;97.20
2653;DHT22;1336;48.692;9.144;2023-01-15T11:58:20;6.90;97.20
2653;DHT22;1336;48.692;9.144;2023-01-15T11:59:13;6.90;97.20
2653;DHT22;1336;48.692;9.144;2023-01-15T12:00:14;6.90;97.20
2653;DHT22;1336;48.692;9.144;2023-01-15T12:01:11;6.80;97.20
2653;DHT22;1336;48.692;9.144;2023-01-15T12:02:15;6.80;97.20
2653;DHT22;1336;48.692;9.144;2023-01-15T12:03:13;6.80;97.20
2653;DHT22;1336;48.692;9.144;2023-01-15T12:04:20;6.80;97.20
2653;DHT22;1336;48.692;9.144;2023-01-15T12:05:15;6.80;97.20
2653;DHT22;1336;48.692;9.144;2023-01-15T12:06:10;6.80;97.20
2653;DHT22;1336;48.692;9.144;2023-01-15T12:07:05;6.80;97.20
2653;DHT22;1336;48.692;9.144;2023-01-15T12:08:00;6.70;97.20
2653;DHT22;1336;48.692;9.144;2023-01-15T12:08:58;6.70;97.20
2653;DHT22;1336;48.692;9.144;2023-01-15T12:10:02;6.70;97.20